AirNav   Air Wisconsin Up To $57,000 Bonus
 
 775 users online  

53XS Kornegay Private Airport
San Benito, Texas, USA

GOING TO SAN BENITO?


FAA INFORMATION EFFECTIVE 09 SEPTEMBER 2021

Location

FAA Identifier: 53XS
Lat/Long: 26-09-01.0000N 097-35-36.0000W
26-09.016667N 097-35.600000W
26.1502778,-97.5933333
(estimated)
Elevation: 30 ft. / 9 m (estimated)
Variation: 07E (1985)
From city: 3 miles NE of SAN BENITO, TX
Time zone: UTC -5 (UTC -6 during Standard Time)
Zip code: 78586

Airport Operations

Airport use: Private use. Permission required prior to landing
Activation date: 07/1978
Control tower: no
ARTCC: HOUSTON CENTER
FSS: SAN ANGELO FLIGHT SERVICE STATION
Attendance: 0700-1800
Wind indicator: yes
Segmented circle: no

Airport Communications

WX ASOS at HRL (6 nm NW): 124.85 (956-428-7297)
WX ASOS at PIL (13 nm E): 118.525 (956-233-1954)
WX ASOS at BRO (17 nm SE): 128.55 (956-546-4540)

Nearby radio navigation aids

VOR radial/distance  VOR name  Freq  Var
HRLr141/5.7HARLINGEN VOR/DME109.2005E
BROr310/18.0BROWNSVILLE VORTAC116.3009E
MAMr347/23.1MATAMOROS VOR/DME114.3004E
MFEr083/34.9MC ALLEN VOR/DME117.2009E
REXr068/35.4REYNOSA VOR/DME112.4008E

 
NDB name  Hdg/Dist  Freq  Var  ID
SEBAS155/9.933805EHR .... .-.
DEPOO333/11.039303EBR -... .-.

Airport Services

Fuel available: 100 JET-A

Runway Information

Runway 12/30

Dimensions: 2600 x 20 ft. / 792 x 6 m
Surface: asphalt
RUNWAY 12  RUNWAY 30
Traffic pattern: leftleft

Airport Ownership and Management from official FAA records

Ownership: Privately-owned
Owner: PATRICK C. KORNEGAY
28125 NORMA LINDA RD
SAN BENITO, TX 78586
Phone 956-399-5323
Manager: PATRICK C. KORNEGAY
28125 NORMA LINDA RD
SAN BENITO, TX 78586
Phone 956-399-5323

Airport Operational Statistics

Aircraft based on the field: 6
Single engine airplanes: 5
Multi engine airplanes: 1
    

Additional Remarks

FOR CD CTC HOUSTON ARTCC AT 281-230-5622.

Instrument Procedures

There are no published instrument procedures at 53XS.

Some nearby airports with instrument procedures:

KHRL - Valley International Airport (6 nm NW)
KPIL - Port Isabel-Cameron County Airport (13 nm E)
KBRO - Brownsville/South Padre Island International Airport (17 nm SE)
KTXW - Mid Valley Airport (21 nm W)
KEBG - South Texas International Airport at Edinburg (33 nm NW)
 
Loc | Ops | Rwys | IFR | FBO | Links
Com | Nav | Svcs | Stats | Notes
Area around 53XS (Kornegay Private Airport)
 
Road maps at: MapQuest Bing Google
 
Aerial photo
No photo
 
Sectional chart

 
Airport distance calculator
Flying to Kornegay Private Airport? Find the distance to fly.

From to 53XS

Sunrise and sunset
Times for 23-Sep-2021
 Local
(UTC-5)
 Zulu
(UTC)
Morning civil twilight06:5711:57
Sunrise07:2012:20
Sunset19:2500:25
Evening civil twilight19:4800:48

Current date and time
Zulu (UTC)  24-Sep-2021 04:46:30
Local (UTC-5)  23-Sep-2021 23:46:30
 
METAR
KHRL 
6nm NW 
240352Z 08006KT 10SM CLR 20/15 A3002
KPIL 
14nm E 
240353Z AUTO 05006KT 10SM CLR 22/15 A3002 RMK AO2 SLP166 T02170150
KBRO 
17nm SE 
232353Z 05006KT 10SM CLR 27/14 A2999
TAF
KHRL 
6nm NW 
231720Z 2318/2418 03006KT P6SM SKC FM232000 05009KT P6SM SKC FM232300 07011KT P6SM SKC FM240300 VRB04KT P6SM SKC FM241700 07006KT P6SM FEW120
KBRO 
17nm SE 
231720Z 2318/2418 03007KT P6SM SKC FM231900 04009KT P6SM FEW070 FEW250 FM240100 06006KT P6SM FEW250 FM240500 00000KT P6SM SKC FM241500 06005KT P6SM FEW250
NOTAMs
Click for the latest NOTAMs
NOTAMs are issued by the DoD/FAA and will open in a separate window not controlled by AirNav.

 

 
 

Would you like to see your business listed on this page?

 If your business provides an interesting product or service to pilots, flight crews, aircraft, or users of the Kornegay Private Airport, you should consider listing it here.  To start the listing process, click on the button below
 
Add a business
 

Other Pages about Kornegay Private Airport

Update a link
 
Copyright © AirNav, LLC. All rights reserved. Privacy Policy  Contact